createdAt,value
2017-08-18T00:00:37.662Z,64.9
2017-08-18T00:01:39.300Z,65.0
2017-08-18T00:02:40.944Z,65.0
2017-08-18T00:03:42.581Z,64.7
2017-08-18T00:04:44.213Z,65.0
2017-08-18T00:05:45.848Z,64.9
2017-08-18T00:06:47.482Z,65.0
2017-08-18T00:07:49.122Z,64.9
2017-08-18T00:08:50.763Z,64.9
2017-08-18T00:09:52.402Z,65.0
2017-08-18T00:10:54.046Z,64.9
2017-08-18T00:11:55.680Z,64.9
2017-08-18T00:12:57.315Z,64.9
2017-08-18T00:13:58.951Z,65.0
2017-08-18T00:15:00.590Z,64.5
2017-08-18T00:16:02.230Z,64.9
2017-08-18T00:17:03.871Z,64.9
2017-08-18T00:18:05.511Z,64.9
2017-08-18T00:19:07.158Z,64.9
2017-08-18T00:20:08.796Z,65.0
2017-08-18T00:21:10.432Z,64.9
2017-08-18T00:22:12.069Z,64.9
2017-08-18T00:23:13.704Z,64.9
2017-08-18T00:24:15.345Z,65.0
2017-08-18T00:25:16.984Z,64.9
2017-08-18T00:26:18.621Z,64.9
2017-08-18T00:27:20.258Z,64.9
2017-08-18T00:28:21.892Z,64.8
2017-08-18T00:29:23.530Z,65.0
2017-08-18T00:30:25.173Z,64.9
2017-08-18T00:31:26.808Z,64.7
2017-08-18T00:32:28.448Z,64.9
2017-08-18T00:33:30.082Z,64.9
2017-08-18T00:34:31.719Z,64.9
2017-08-18T00:35:33.356Z,64.9
2017-08-18T00:36:34.997Z,64.8
2017-08-18T00:37:36.636Z,64.6
2017-08-18T00:38:38.273Z,64.9
2017-08-18T00:39:39.917Z,65.0
2017-08-18T00:40:41.548Z,64.9
2017-08-18T00:41:43.186Z,65.0
2017-08-18T00:42:44.822Z,64.9
2017-08-18T00:43:46.461Z,64.6
2017-08-18T00:44:48.094Z,64.6
2017-08-18T00:45:49.735Z,64.8
2017-08-18T00:46:51.377Z,64.9
2017-08-18T00:47:53.010Z,64.5
2017-08-18T00:48:54.643Z,64.5
2017-08-18T00:49:56.279Z,64.9
2017-08-18T00:50:57.917Z,64.9
2017-08-18T00:51:59.560Z,64.9
2017-08-18T00:53:01.199Z,64.6
2017-08-18T00:54:02.837Z,64.5
2017-08-18T00:55:04.477Z,64.9
2017-08-18T00:56:06.115Z,64.9
2017-08-18T00:57:07.754Z,64.8
2017-08-18T00:58:09.391Z,64.3
2017-08-18T00:59:11.029Z,64.9
2017-08-18T01:00:12.669Z,64.8
2017-08-18T01:01:14.311Z,64.9
2017-08-18T01:02:15.947Z,64.9
2017-08-18T01:03:17.583Z,64.9
2017-08-18T01:04:19.221Z,64.6
2017-08-18T01:05:20.859Z,64.8
2017-08-18T01:06:22.495Z,64.8
2017-08-18T01:07:24.138Z,64.9
2017-08-18T01:08:25.773Z,64.9
2017-08-18T01:09:27.411Z,64.9
2017-08-18T01:10:29.048Z,64.9
2017-08-18T01:11:30.686Z,64.9
2017-08-18T01:12:32.319Z,65.0
2017-08-18T01:13:33.960Z,64.8
2017-08-18T01:14:35.600Z,64.3
2017-08-18T01:15:37.239Z,64.4
2017-08-18T01:16:38.873Z,64.2
2017-08-18T01:17:40.508Z,64.6
2017-08-18T01:18:42.146Z,65.0
2017-08-18T01:19:43.781Z,64.9
2017-08-18T01:20:45.421Z,64.8
2017-08-18T01:21:47.062Z,65.0
2017-08-18T01:22:48.702Z,64.9
2017-08-18T01:23:50.334Z,65.2
2017-08-18T01:24:51.975Z,64.9
2017-08-18T01:25:53.610Z,65.0
2017-08-18T01:26:55.247Z,64.6
2017-08-18T01:27:56.887Z,64.9
2017-08-18T01:28:58.528Z,65.1
2017-08-18T01:30:00.166Z,64.9
2017-08-18T01:31:01.803Z,65.3
2017-08-18T01:32:03.440Z,65.1
2017-08-18T01:33:05.075Z,65.3
2017-08-18T01:34:06.713Z,64.3
2017-08-18T01:35:08.352Z,65.3
2017-08-18T01:36:09.989Z,64.9
2017-08-18T01:37:11.626Z,64.8
2017-08-18T01:38:13.261Z,64.9
2017-08-18T01:39:14.895Z,64.9
2017-08-18T01:40:16.532Z,64.8
2017-08-18T01:41:18.170Z,64.9
2017-08-18T01:42:19.809Z,65.2
2017-08-18T01:43:21.446Z,64.3
2017-08-18T01:44:23.088Z,64.3
2017-08-18T01:45:24.725Z,64.4
2017-08-18T01:46:26.360Z,65.2
2017-08-18T01:47:27.993Z,64.9
2017-08-18T01:48:29.632Z,64.5
2017-08-18T01:49:31.270Z,64.3
2017-08-18T01:50:32.908Z,65.0
2017-08-18T01:51:34.549Z,65.1
2017-08-18T01:52:36.182Z,64.5
2017-08-18T01:53:37.824Z,65.0
2017-08-18T01:54:39.460Z,64.9
2017-08-18T01:55:41.094Z,64.9
2017-08-18T01:56:42.732Z,64.4
2017-08-18T01:57:44.369Z,64.9
2017-08-18T01:58:46.007Z,64.1
2017-08-18T01:59:47.641Z,64.3
2017-08-18T02:00:49.276Z,64.9
2017-08-18T02:01:50.914Z,65.3
2017-08-18T02:02:52.563Z,65.1
2017-08-18T02:03:54.200Z,64.9
2017-08-18T02:04:55.839Z,65.1
2017-08-18T02:05:57.479Z,65.0
2017-08-18T02:06:59.116Z,65.2
2017-08-18T02:08:00.748Z,65.1
2017-08-18T02:09:02.385Z,64.7
2017-08-18T02:10:04.023Z,64.6
2017-08-18T02:11:05.661Z,64.9
2017-08-18T02:12:07.304Z,65.0
2017-08-18T02:13:08.943Z,64.9
2017-08-18T02:14:10.576Z,64.9
2017-08-18T02:15:12.215Z,65.2
2017-08-18T02:16:13.864Z,65.3
2017-08-18T02:17:15.498Z,64.5
2017-08-18T02:18:17.135Z,65.1
2017-08-18T02:19:18.775Z,65.1
2017-08-18T02:20:20.414Z,64.9
2017-08-18T02:21:22.049Z,65.1
2017-08-18T02:22:23.687Z,64.8
2017-08-18T02:23:25.319Z,64.7
2017-08-18T02:24:26.956Z,64.3
2017-08-18T02:25:28.595Z,65.1
2017-08-18T02:26:30.234Z,65.1
2017-08-18T02:27:31.872Z,65.0
2017-08-18T02:28:33.505Z,64.5
2017-08-18T02:29:35.141Z,65.1
2017-08-18T02:30:36.780Z,64.5
2017-08-18T02:31:38.415Z,65.1
2017-08-18T02:32:40.054Z,65.1
2017-08-18T02:33:41.693Z,65.0
2017-08-18T02:34:43.337Z,64.4
2017-08-18T02:35:44.968Z,65.2
2017-08-18T02:36:46.607Z,64.9
2017-08-18T02:37:48.244Z,65.0
2017-08-18T02:38:49.882Z,64.9
2017-08-18T02:39:51.525Z,65.0
2017-08-18T02:40:53.158Z,65.2
2017-08-18T02:41:54.802Z,65.1
2017-08-18T02:42:56.435Z,65.0
2017-08-18T02:43:58.067Z,65.0
2017-08-18T02:44:59.704Z,65.1
2017-08-18T02:46:01.340Z,65.3
2017-08-18T02:47:02.980Z,64.8
2017-08-18T02:48:04.623Z,64.9
2017-08-18T02:49:06.257Z,65.7
2017-08-18T02:50:07.890Z,65.0
2017-08-18T02:51:09.525Z,65.1
2017-08-18T02:52:11.162Z,65.1
2017-08-18T02:53:12.800Z,65.1
2017-08-18T02:54:14.437Z,65.0
2017-08-18T02:55:16.083Z,65.0
2017-08-18T02:56:17.724Z,64.9
2017-08-18T02:57:19.360Z,65.1
2017-08-18T02:58:20.997Z,64.9
2017-08-18T02:59:22.631Z,65.1
2017-08-18T03:00:24.272Z,65.1
2017-08-18T03:01:25.908Z,64.9
2017-08-18T03:02:27.550Z,65.1
2017-08-18T03:03:29.187Z,65.3
2017-08-18T03:04:30.824Z,64.3
2017-08-18T03:05:32.460Z,64.8
2017-08-18T03:06:34.094Z,65.1
2017-08-18T03:07:35.734Z,65.2
2017-08-18T03:08:37.372Z,65.8
2017-08-18T03:09:39.012Z,65.3
2017-08-18T03:10:40.654Z,64.6
2017-08-18T03:11:42.291Z,65.5
2017-08-18T03:12:43.934Z,65.5
2017-08-18T03:13:45.567Z,64.9
2017-08-18T03:14:47.206Z,65.4
2017-08-18T03:15:48.845Z,64.6
2017-08-18T03:16:50.482Z,64.8
2017-08-18T03:17:52.122Z,64.9
2017-08-18T03:18:53.763Z,65.0
2017-08-18T03:19:55.399Z,65.2
2017-08-18T03:20:57.047Z,64.7
2017-08-18T03:21:58.677Z,64.9
2017-08-18T03:23:00.317Z,64.8
2017-08-18T03:24:01.954Z,64.9
2017-08-18T03:25:03.595Z,65.2
2017-08-18T03:26:05.227Z,65.3
2017-08-18T03:27:06.860Z,65.2
2017-08-18T03:28:08.495Z,64.9
2017-08-18T03:29:10.134Z,64.8
2017-08-18T03:30:11.779Z,65.4
2017-08-18T03:31:13.417Z,65.4
2017-08-18T03:32:15.055Z,64.8
2017-08-18T03:33:16.692Z,65.2
2017-08-18T03:34:18.329Z,65.2
2017-08-18T03:35:19.962Z,65.3
2017-08-18T03:36:21.602Z,64.9
2017-08-18T03:37:23.241Z,65.4
2017-08-18T03:38:24.881Z,65.1
2017-08-18T03:39:26.517Z,64.9
2017-08-18T03:40:28.155Z,64.8
2017-08-18T03:41:29.789Z,64.3
2017-08-18T03:42:31.429Z,65.2
2017-08-18T03:43:33.067Z,64.9
2017-08-18T03:44:34.707Z,64.3
2017-08-18T03:45:36.342Z,64.9
2017-08-18T03:46:37.983Z,64.9
2017-08-18T03:47:39.615Z,64.9
2017-08-18T03:48:41.269Z,65.3
2017-08-18T03:49:42.902Z,64.3
2017-08-18T03:50:44.540Z,64.8
2017-08-18T03:51:46.181Z,64.9
2017-08-18T03:52:47.821Z,65.3
2017-08-18T03:53:49.459Z,65.4
2017-08-18T03:54:51.098Z,64.9
2017-08-18T03:55:52.733Z,64.9
2017-08-18T03:56:54.370Z,65.3
2017-08-18T03:57:56.006Z,64.9
2017-08-18T03:58:57.646Z,64.9
2017-08-18T03:59:59.281Z,65.1
2017-08-18T04:01:00.925Z,64.9
2017-08-18T04:02:02.566Z,64.9
2017-08-18T04:03:04.198Z,65.2
2017-08-18T04:04:05.835Z,65.4
2017-08-18T04:05:07.473Z,64.6
2017-08-18T04:06:09.109Z,64.8
2017-08-18T04:07:10.750Z,65.3
2017-08-18T04:08:12.386Z,64.7
2017-08-18T04:09:14.020Z,64.7
2017-08-18T04:10:15.658Z,65.2
2017-08-18T04:11:17.296Z,64.6
2017-08-18T04:12:18.931Z,64.6
2017-08-18T04:13:20.569Z,65.1
2017-08-18T04:14:22.204Z,64.6
2017-08-18T04:15:23.846Z,65.1
2017-08-18T04:16:25.483Z,65.0
2017-08-18T04:17:27.119Z,65.1
2017-08-18T04:18:28.758Z,65.2
2017-08-18T04:19:30.393Z,65.0
2017-08-18T04:20:32.031Z,65.1
2017-08-18T04:21:33.671Z,65.1
2017-08-18T04:22:35.313Z,65.1
2017-08-18T04:23:36.948Z,64.6
2017-08-18T04:24:38.587Z,65.1
2017-08-18T04:25:40.219Z,64.8
2017-08-18T04:26:41.864Z,64.7
2017-08-18T04:27:43.499Z,64.4
2017-08-18T04:28:45.139Z,64.6
2017-08-18T04:29:46.778Z,64.9
2017-08-18T04:30:48.416Z,65.1
2017-08-18T04:31:50.052Z,64.7
2017-08-18T04:32:51.691Z,65.2
2017-08-18T04:33:53.327Z,64.9
2017-08-18T04:34:54.964Z,64.9
2017-08-18T04:35:56.603Z,65.2
2017-08-18T04:36:58.246Z,65.1
2017-08-18T04:37:59.876Z,64.5
2017-08-18T04:39:01.510Z,65.1
2017-08-18T04:40:03.150Z,65.1
2017-08-18T04:41:04.784Z,65.0
2017-08-18T04:42:06.421Z,64.6
2017-08-18T04:43:08.064Z,65.2
2017-08-18T04:44:09.700Z,65.0
2017-08-18T04:45:11.335Z,64.5
2017-08-18T04:46:12.971Z,64.7
2017-08-18T04:47:14.613Z,64.6
2017-08-18T04:48:16.250Z,64.6
2017-08-18T04:49:17.890Z,64.5
2017-08-18T04:50:19.528Z,64.7
2017-08-18T04:51:21.167Z,64.8
2017-08-18T04:52:22.801Z,64.8
2017-08-18T04:53:24.439Z,65.3
2017-08-18T04:54:26.071Z,64.7
2017-08-18T04:55:27.712Z,65.8
2017-08-18T04:56:29.352Z,64.5
2017-08-18T04:57:30.984Z,64.7
2017-08-18T04:58:32.628Z,65.0
2017-08-18T04:59:34.262Z,64.6
2017-08-18T05:00:35.899Z,64.8
2017-08-18T05:01:37.537Z,65.2
2017-08-18T05:02:39.173Z,65.1
2017-08-18T05:03:40.810Z,64.7
2017-08-18T05:04:42.449Z,64.5
2017-08-18T05:05:44.090Z,64.5
2017-08-18T05:06:45.723Z,65.2
2017-08-18T05:07:47.358Z,64.7
2017-08-18T05:08:48.997Z,65.0
2017-08-18T05:09:50.658Z,65.1
2017-08-18T05:10:52.275Z,65.1
2017-08-18T05:11:53.914Z,65.1
2017-08-18T05:12:55.553Z,65.1
2017-08-18T05:13:57.187Z,65.1
2017-08-18T05:14:58.821Z,65.1
2017-08-18T05:16:00.459Z,64.7
2017-08-18T05:17:02.110Z,64.5
2017-08-18T05:18:03.743Z,65.3
2017-08-18T05:19:05.384Z,65.0
2017-08-18T05:20:07.025Z,64.6
2017-08-18T05:21:08.661Z,65.2
2017-08-18T05:22:10.297Z,64.9
2017-08-18T05:23:11.939Z,64.6
2017-08-18T05:24:13.568Z,64.6
2017-08-18T05:25:15.208Z,64.7
2017-08-18T05:26:16.849Z,65.0
2017-08-18T05:27:18.487Z,65.0
2017-08-18T05:28:20.120Z,65.1
2017-08-18T05:29:21.757Z,64.7
2017-08-18T05:30:23.406Z,65.1
2017-08-18T05:31:25.043Z,65.0
2017-08-18T05:32:26.679Z,65.1
2017-08-18T05:33:28.325Z,65.2
2017-08-18T05:34:29.963Z,64.9
2017-08-18T05:35:31.602Z,65.1
2017-08-18T05:36:33.235Z,65.0
2017-08-18T05:37:34.870Z,65.0
2017-08-18T05:38:36.512Z,65.2
2017-08-18T05:39:38.148Z,64.9
2017-08-18T05:40:39.788Z,65.1
2017-08-18T05:41:41.428Z,65.2
2017-08-18T05:42:43.063Z,65.1
2017-08-18T05:43:44.704Z,65.0
2017-08-18T05:44:46.341Z,65.1
2017-08-18T05:45:47.975Z,65.4
2017-08-18T05:46:49.616Z,65.5
2017-08-18T05:47:51.255Z,65.5
2017-08-18T05:48:52.903Z,65.5
2017-08-18T05:49:54.537Z,64.9
2017-08-18T05:50:56.171Z,65.3
2017-08-18T05:51:57.807Z,64.9
2017-08-18T05:52:59.447Z,65.4
2017-08-18T05:54:01.085Z,65.4
2017-08-18T05:55:02.724Z,65.3
2017-08-18T05:56:04.365Z,64.9
2017-08-18T05:57:06.004Z,65.2
2017-08-18T05:58:07.640Z,64.9
2017-08-18T05:59:09.278Z,65.5
2017-08-18T06:00:10.923Z,65.1
2017-08-18T06:01:12.558Z,65.0
2017-08-18T06:02:14.996Z,65.3
2017-08-18T06:03:16.588Z,65.4
2017-08-18T06:04:18.224Z,65.3
2017-08-18T06:05:19.863Z,65.2
2017-08-18T06:06:21.498Z,65.3
2017-08-18T06:07:23.135Z,65.4
2017-08-18T06:08:24.776Z,65.3
2017-08-18T06:09:26.411Z,64.9
2017-08-18T06:10:28.053Z,64.9
2017-08-18T06:11:29.687Z,65.3
2017-08-18T06:12:31.319Z,65.4
2017-08-18T06:13:32.961Z,65.2
2017-08-18T06:14:34.602Z,64.9
2017-08-18T06:15:36.242Z,64.9
2017-08-18T06:16:37.888Z,65.3
2017-08-18T06:17:39.525Z,65.2
2017-08-18T06:18:41.159Z,65.3
2017-08-18T06:19:42.791Z,65.1
2017-08-18T06:20:44.473Z,65.3
2017-08-18T06:21:46.112Z,65.4
2017-08-18T06:22:47.755Z,65.5
2017-08-18T06:23:49.391Z,65.6
2017-08-18T06:24:51.032Z,65.3
2017-08-18T06:25:52.667Z,65.0
2017-08-18T06:26:54.309Z,65.1
2017-08-18T06:27:55.945Z,64.9
2017-08-18T06:28:57.587Z,65.2
2017-08-18T06:29:59.229Z,65.2
2017-08-18T06:31:00.867Z,65.1
2017-08-18T06:32:02.510Z,64.9
2017-08-18T06:33:04.144Z,64.9
2017-08-18T06:34:05.783Z,65.3
2017-08-18T06:35:07.422Z,65.2
2017-08-18T06:36:09.066Z,65.1
2017-08-18T06:37:10.708Z,65.2
2017-08-18T06:38:12.349Z,65.4
2017-08-18T06:39:13.988Z,65.0
2017-08-18T06:40:15.625Z,65.5
2017-08-18T06:41:17.260Z,64.9
2017-08-18T06:42:18.898Z,64.9
2017-08-18T06:43:20.537Z,64.9
2017-08-18T06:44:22.181Z,65.1
2017-08-18T06:45:23.818Z,65.4
2017-08-18T06:46:25.458Z,64.9
2017-08-18T06:47:27.096Z,65.3
2017-08-18T06:48:28.734Z,64.6
2017-08-18T06:49:30.378Z,65.1
2017-08-18T06:50:32.011Z,65.2
2017-08-18T06:51:33.649Z,64.7
2017-08-18T06:52:35.291Z,64.8
2017-08-18T06:53:36.933Z,65.4
2017-08-18T06:54:38.574Z,64.8
2017-08-18T06:55:40.212Z,64.5
2017-08-18T06:56:41.851Z,64.8
2017-08-18T06:57:43.496Z,65.2
2017-08-18T06:58:45.133Z,64.7
2017-08-18T06:59:46.768Z,64.7
2017-08-18T07:00:48.408Z,64.8
2017-08-18T07:01:50.047Z,65.3
2017-08-18T07:02:51.684Z,65.2
2017-08-18T07:03:53.321Z,65.0
2017-08-18T07:04:54.959Z,64.6
2017-08-18T07:05:56.602Z,65.1
2017-08-18T07:06:58.237Z,64.8
2017-08-18T07:07:59.882Z,64.9
2017-08-18T07:09:01.513Z,64.8
2017-08-18T07:10:03.151Z,64.7
2017-08-18T07:11:04.792Z,65.6
2017-08-18T07:12:06.925Z,64.6
2017-08-18T07:13:08.568Z,64.6
2017-08-18T07:14:10.203Z,64.7
2017-08-18T07:15:11.842Z,65.3
2017-08-18T07:16:13.477Z,65.1
2017-08-18T07:17:15.115Z,65.4
2017-08-18T07:18:16.755Z,65.2
2017-08-18T07:19:18.391Z,65.0
2017-08-18T07:20:20.031Z,65.0
2017-08-18T07:21:21.668Z,65.3
2017-08-18T07:22:23.307Z,64.9
2017-08-18T07:23:24.943Z,64.9
2017-08-18T07:24:26.583Z,64.6
2017-08-18T07:25:28.382Z,64.7
2017-08-18T07:26:30.022Z,64.9
2017-08-18T07:27:31.661Z,64.9
2017-08-18T07:28:33.304Z,64.3
2017-08-18T07:29:34.944Z,65.4
2017-08-18T07:30:36.581Z,64.6
2017-08-18T07:31:38.214Z,64.9
2017-08-18T07:32:39.986Z,64.1
2017-08-18T07:33:41.622Z,64.9
2017-08-18T07:34:43.262Z,64.8
2017-08-18T07:35:44.904Z,64.9
2017-08-18T07:36:46.546Z,65.0
2017-08-18T07:37:48.183Z,64.9
2017-08-18T07:38:49.817Z,65.0
2017-08-18T07:39:51.594Z,64.9
2017-08-18T07:40:53.235Z,64.6
2017-08-18T07:41:54.878Z,64.9
2017-08-18T07:42:56.520Z,65.0
2017-08-18T07:43:58.156Z,64.9
2017-08-18T07:44:59.793Z,64.9
2017-08-18T07:46:01.432Z,64.9
2017-08-18T07:47:03.069Z,65.0
2017-08-18T07:48:04.708Z,64.7
2017-08-18T07:49:06.350Z,64.9
2017-08-18T07:50:07.988Z,64.9
2017-08-18T07:51:09.629Z,64.7
2017-08-18T07:52:11.266Z,64.9
2017-08-18T07:53:12.907Z,64.6
2017-08-18T07:54:14.542Z,65.0
2017-08-18T07:55:16.180Z,64.3
2017-08-18T07:56:17.836Z,64.9
2017-08-18T07:57:19.482Z,64.6
2017-08-18T07:58:21.121Z,64.4
2017-08-18T07:59:22.756Z,64.5
2017-08-18T08:00:24.397Z,64.8
2017-08-18T08:01:26.035Z,64.9
2017-08-18T08:02:27.677Z,65.1
2017-08-18T08:03:29.327Z,64.6
2017-08-18T08:04:30.966Z,64.6
2017-08-18T08:05:32.608Z,64.6
2017-08-18T08:06:34.242Z,64.5
2017-08-18T08:07:35.883Z,64.7
2017-08-18T08:08:37.520Z,64.7
2017-08-18T08:09:39.160Z,64.6
2017-08-18T08:10:40.801Z,64.7
2017-08-18T08:11:42.440Z,64.7
2017-08-18T08:12:44.078Z,64.8
2017-08-18T08:13:45.718Z,64.7
2017-08-18T08:14:47.357Z,64.5
2017-08-18T08:15:48.994Z,64.5
2017-08-18T08:16:50.632Z,64.7
2017-08-18T08:17:52.280Z,64.8
2017-08-18T08:18:53.922Z,64.8
2017-08-18T08:19:55.564Z,64.8
2017-08-18T08:20:57.199Z,64.5
2017-08-18T08:21:58.841Z,64.6
2017-08-18T08:23:00.473Z,64.9
2017-08-18T08:24:02.998Z,64.4
2017-08-18T08:25:04.708Z,64.9
2017-08-18T08:26:06.347Z,64.7
2017-08-18T08:27:07.988Z,64.7
2017-08-18T08:28:09.626Z,64.6
2017-08-18T08:29:11.264Z,64.8
2017-08-18T08:30:12.902Z,64.8
2017-08-18T08:31:14.559Z,64.8
2017-08-18T08:32:16.198Z,64.7
2017-08-18T08:33:17.839Z,64.2
2017-08-18T08:34:19.481Z,64.7
2017-08-18T08:35:21.114Z,64.4
2017-08-18T08:36:22.749Z,64.8
2017-08-18T08:37:24.389Z,64.4
2017-08-18T08:38:26.027Z,64.5
2017-08-18T08:39:27.666Z,64.8
2017-08-18T08:40:29.302Z,64.8
2017-08-18T08:41:30.940Z,64.7
2017-08-18T08:42:32.577Z,64.8
2017-08-18T08:43:34.214Z,64.4
2017-08-18T08:44:35.856Z,64.8
2017-08-18T08:45:37.492Z,64.9
2017-08-18T08:46:39.131Z,64.8
2017-08-18T08:47:40.769Z,64.8
2017-08-18T08:48:42.409Z,64.8
2017-08-18T08:49:44.059Z,64.7
2017-08-18T08:50:45.698Z,64.6
2017-08-18T08:51:47.335Z,64.7
2017-08-18T08:52:48.972Z,64.8
2017-08-18T08:53:50.611Z,64.6
2017-08-18T08:54:52.248Z,64.7
2017-08-18T08:55:53.891Z,64.7
2017-08-18T08:56:55.530Z,64.9
2017-08-18T08:57:57.160Z,64.7
2017-08-18T08:58:58.800Z,64.8
2017-08-18T09:00:00.442Z,64.6
2017-08-18T09:01:02.174Z,64.6
2017-08-18T09:02:03.819Z,64.9
2017-08-18T09:03:05.461Z,64.6
2017-08-18T09:04:07.099Z,64.8
2017-08-18T09:05:08.735Z,64.6
2017-08-18T09:06:10.373Z,64.6
2017-08-18T09:07:12.012Z,64.5
2017-08-18T09:08:13.652Z,64.6
2017-08-18T09:09:15.293Z,64.7
2017-08-18T09:10:16.934Z,64.6
2017-08-18T09:11:18.570Z,64.4
2017-08-18T09:12:20.209Z,64.6
2017-08-18T09:13:21.844Z,64.4
2017-08-18T09:14:23.482Z,64.3
2017-08-18T09:15:26.184Z,64.3
2017-08-18T09:16:27.823Z,64.7
2017-08-18T09:17:29.462Z,64.0
2017-08-18T09:18:31.102Z,64.5
2017-08-18T09:19:32.736Z,64.5
2017-08-18T09:20:34.378Z,64.5
2017-08-18T09:21:36.014Z,64.6
2017-08-18T09:22:37.652Z,64.1
2017-08-18T09:23:39.291Z,64.1
2017-08-18T09:24:40.945Z,64.1
2017-08-18T09:25:42.582Z,64.3
2017-08-18T09:26:44.221Z,64.3
2017-08-18T09:27:45.862Z,64.5
2017-08-18T09:28:47.502Z,64.3
2017-08-18T09:29:49.143Z,64.0
2017-08-18T09:30:50.783Z,64.5
2017-08-18T09:31:52.432Z,64.3
2017-08-18T09:32:54.071Z,64.2
2017-08-18T09:33:55.703Z,64.1
2017-08-18T09:34:57.340Z,64.2
2017-08-18T09:35:58.978Z,64.2
2017-08-18T09:37:00.618Z,64.6
2017-08-18T09:38:02.264Z,64.5
2017-08-18T09:39:03.904Z,64.1
2017-08-18T09:40:05.543Z,64.1
2017-08-18T09:41:07.177Z,64.0
2017-08-18T09:42:08.821Z,64.0
2017-08-18T09:43:10.452Z,64.2
2017-08-18T09:44:12.093Z,64.1
2017-08-18T09:45:13.737Z,64.6
2017-08-18T09:46:15.371Z,64.2
2017-08-18T09:47:17.025Z,64.2
2017-08-18T09:48:18.666Z,64.0
2017-08-18T09:49:20.301Z,64.2
2017-08-18T09:50:21.941Z,64.1
2017-08-18T09:51:23.581Z,64.4
2017-08-18T09:52:25.276Z,64.6
2017-08-18T09:53:26.859Z,64.6
2017-08-18T09:54:28.503Z,64.2
2017-08-18T09:55:30.138Z,64.0
2017-08-18T09:56:31.781Z,64.2
2017-08-18T09:57:33.415Z,64.3
2017-08-18T09:58:35.056Z,64.0
2017-08-18T09:59:37.131Z,64.6
2017-08-18T10:00:38.769Z,64.1
2017-08-18T10:01:40.419Z,64.6
2017-08-18T10:02:42.059Z,64.1
2017-08-18T10:03:43.692Z,64.7
2017-08-18T10:04:45.331Z,64.1
2017-08-18T10:05:46.968Z,64.6
2017-08-18T10:06:48.668Z,64.6
2017-08-18T10:07:50.307Z,64.6
2017-08-18T10:08:51.944Z,64.6
2017-08-18T10:09:53.582Z,64.2
2017-08-18T10:10:55.227Z,64.2
2017-08-18T10:11:56.866Z,64.3
2017-08-18T10:12:58.503Z,64.2
2017-08-18T10:14:00.242Z,64.1
2017-08-18T10:15:01.897Z,64.1
2017-08-18T10:16:03.522Z,64.3
2017-08-18T10:17:05.163Z,64.3
2017-08-18T10:18:06.799Z,64.3
2017-08-18T10:19:08.436Z,64.3
2017-08-18T10:20:10.084Z,64.3
2017-08-18T10:21:12.678Z,64.2
2017-08-18T10:22:14.318Z,64.2
2017-08-18T10:23:15.958Z,64.3
2017-08-18T10:24:17.602Z,64.3
2017-08-18T10:25:19.236Z,64.1
2017-08-18T10:26:20.877Z,64.2
2017-08-18T10:27:22.521Z,64.2
2017-08-18T10:28:24.163Z,64.1
2017-08-18T10:29:25.806Z,64.0
2017-08-18T10:30:27.468Z,64.3
2017-08-18T10:31:29.118Z,64.3
2017-08-18T10:32:30.773Z,64.3
2017-08-18T10:33:32.413Z,64.2
2017-08-18T10:34:34.053Z,64.3
2017-08-18T10:35:36.422Z,64.1
2017-08-18T10:36:38.060Z,64.1
2017-08-18T10:37:39.695Z,64.1
2017-08-18T10:38:41.338Z,64.1
2017-08-18T10:39:42.974Z,64.0
2017-08-18T10:40:44.613Z,64.3
2017-08-18T10:41:46.257Z,63.9
2017-08-18T10:42:47.895Z,64.3
2017-08-18T10:43:49.536Z,64.3
2017-08-18T10:44:51.184Z,64.1
2017-08-18T10:45:52.826Z,64.3
2017-08-18T10:46:54.466Z,64.1
2017-08-18T10:47:56.101Z,64.2
2017-08-18T10:48:57.743Z,64.3
2017-08-18T10:49:59.380Z,64.1
2017-08-18T10:51:01.069Z,64.1
2017-08-18T10:52:02.707Z,64.3
2017-08-18T10:53:04.347Z,64.1
2017-08-18T10:54:05.984Z,64.2
2017-08-18T10:55:07.626Z,64.2
2017-08-18T10:56:09.271Z,64.0
2017-08-18T10:57:10.916Z,64.2
2017-08-18T10:58:12.556Z,64.2
2017-08-18T10:59:14.191Z,64.3
2017-08-18T11:00:15.829Z,64.4
2017-08-18T11:01:17.467Z,64.3
2017-08-18T11:02:19.106Z,64.1
2017-08-18T11:03:20.746Z,64.0
2017-08-18T11:04:22.385Z,64.2
2017-08-18T11:05:24.650Z,64.3
2017-08-18T11:06:26.271Z,64.3
2017-08-18T11:07:27.907Z,64.2
2017-08-18T11:08:29.548Z,64.2
2017-08-18T11:09:31.197Z,64.2
2017-08-18T11:10:32.840Z,64.3
2017-08-18T11:11:34.493Z,64.1
2017-08-18T11:12:37.218Z,64.2
2017-08-18T11:13:38.855Z,64.1
2017-08-18T11:14:40.491Z,64.1
2017-08-18T11:15:42.127Z,64.3
2017-08-18T11:16:43.769Z,64.2
2017-08-18T11:17:45.411Z,64.3
2017-08-18T11:18:47.049Z,64.1
2017-08-18T11:19:49.332Z,64.3
2017-08-18T11:20:50.972Z,64.3
2017-08-18T11:21:52.606Z,64.3
2017-08-18T11:22:54.256Z,64.2
2017-08-18T11:23:55.895Z,64.3
2017-08-18T11:24:57.532Z,64.1
2017-08-18T11:25:59.172Z,64.2
2017-08-18T11:27:01.773Z,64.0
2017-08-18T11:28:03.363Z,64.2
2017-08-18T11:29:04.998Z,64.1
2017-08-18T11:30:06.633Z,64.1
2017-08-18T11:31:08.275Z,64.4
2017-08-18T11:32:09.917Z,64.2
2017-08-18T11:33:11.557Z,64.2
2017-08-18T11:34:13.427Z,64.1
2017-08-18T11:35:15.059Z,64.1
2017-08-18T11:36:16.700Z,64.1
2017-08-18T11:37:18.341Z,64.1
2017-08-18T11:38:19.983Z,64.2
2017-08-18T11:39:21.615Z,64.3
2017-08-18T11:40:23.257Z,64.3
2017-08-18T11:41:24.897Z,64.3
2017-08-18T11:42:26.535Z,64.2
2017-08-18T11:43:28.171Z,64.2
2017-08-18T11:44:29.810Z,63.9
2017-08-18T11:45:31.450Z,64.2
2017-08-18T11:46:33.092Z,64.2
2017-08-18T11:47:34.734Z,64.4
2017-08-18T11:48:36.385Z,64.2
2017-08-18T11:49:38.021Z,64.1
2017-08-18T11:50:39.661Z,64.2
2017-08-18T11:51:41.298Z,64.2
2017-08-18T11:52:42.937Z,64.2
2017-08-18T11:53:44.579Z,64.1
2017-08-18T11:54:46.218Z,64.2
2017-08-18T11:55:47.863Z,64.2
2017-08-18T11:56:49.499Z,64.3
2017-08-18T11:57:51.140Z,64.1
2017-08-18T11:58:52.778Z,64.1
2017-08-18T11:59:54.415Z,64.1
2017-08-18T12:00:56.057Z,64.1
2017-08-18T12:01:57.693Z,64.1
2017-08-18T12:02:59.335Z,64.2
2017-08-18T12:04:00.976Z,64.3
2017-08-18T12:05:02.613Z,64.3
2017-08-18T12:06:04.250Z,64.1
2017-08-18T12:07:05.890Z,64.4
2017-08-18T12:08:07.530Z,64.1
2017-08-18T12:09:09.172Z,64.4
2017-08-18T12:10:10.808Z,64.3
2017-08-18T12:11:13.480Z,64.3
2017-08-18T12:12:15.115Z,64.3
2017-08-18T12:13:16.752Z,64.3
2017-08-18T12:14:18.388Z,64.3
2017-08-18T12:15:20.033Z,64.2
2017-08-18T12:16:21.673Z,64.4
2017-08-18T12:17:23.317Z,64.3
2017-08-18T12:18:25.670Z,64.5
2017-08-18T12:19:27.310Z,64.4
2017-08-18T12:20:28.947Z,64.4
2017-08-18T12:21:30.588Z,64.6
2017-08-18T12:22:32.227Z,64.1
2017-08-18T12:23:33.867Z,64.2
2017-08-18T12:24:36.144Z,64.3
2017-08-18T12:25:37.779Z,64.4
2017-08-18T12:26:39.416Z,64.3
2017-08-18T12:27:41.058Z,64.6
2017-08-18T12:28:42.700Z,64.3
2017-08-18T12:29:44.340Z,64.2
2017-08-18T12:30:45.976Z,64.4
2017-08-18T12:31:47.618Z,64.4
2017-08-18T12:32:49.256Z,64.4
2017-08-18T12:33:50.900Z,64.3
2017-08-18T12:34:52.538Z,64.3
2017-08-18T12:35:54.176Z,64.1
2017-08-18T12:36:56.959Z,64.2
2017-08-18T12:37:58.595Z,64.1
2017-08-18T12:39:00.262Z,64.2
2017-08-18T12:40:01.882Z,64.3
2017-08-18T12:41:03.517Z,64.4
2017-08-18T12:42:05.159Z,64.1
2017-08-18T12:43:06.793Z,64.6
2017-08-18T12:44:08.432Z,64.4
2017-08-18T12:45:10.072Z,64.3
2017-08-18T12:46:11.719Z,64.3
2017-08-18T12:47:13.350Z,64.4
2017-08-18T12:48:14.993Z,64.3
2017-08-18T12:49:16.633Z,64.3
2017-08-18T12:50:18.273Z,64.3
2017-08-18T12:51:19.912Z,64.3
2017-08-18T12:52:21.553Z,64.3
2017-08-18T12:53:23.195Z,64.1
2017-08-18T12:54:24.831Z,64.3
2017-08-18T12:55:26.468Z,64.3
2017-08-18T12:56:28.104Z,64.1
2017-08-18T12:57:29.744Z,64.3
2017-08-18T12:58:31.381Z,64.3
2017-08-18T12:59:33.022Z,64.3
2017-08-18T13:00:34.660Z,64.3
2017-08-18T13:01:36.298Z,64.1
2017-08-18T13:02:37.932Z,64.4
2017-08-18T13:03:39.573Z,64.4
2017-08-18T13:04:41.210Z,64.3
2017-08-18T13:05:42.849Z,64.3
2017-08-18T13:06:44.490Z,64.1
2017-08-18T13:07:46.135Z,64.5
2017-08-18T13:08:47.766Z,64.3
2017-08-18T13:09:49.405Z,64.3
2017-08-18T13:10:51.043Z,64.1
2017-08-18T13:11:52.680Z,64.3
2017-08-18T13:12:54.318Z,64.3
2017-08-18T13:13:55.957Z,64.3
2017-08-18T13:14:57.601Z,64.3
2017-08-18T13:15:59.240Z,64.3
2017-08-18T13:17:00.875Z,64.4
2017-08-18T13:18:02.513Z,64.1
2017-08-18T13:19:04.153Z,64.3
2017-08-18T13:20:05.794Z,64.3
2017-08-18T13:21:07.435Z,64.3
2017-08-18T13:22:09.075Z,64.4
2017-08-18T13:23:10.710Z,64.1
2017-08-18T13:24:12.349Z,64.3
2017-08-18T13:25:13.983Z,64.1
2017-08-18T13:26:15.621Z,64.4
2017-08-18T13:27:17.267Z,64.3
2017-08-18T13:28:18.907Z,64.3
2017-08-18T13:29:20.551Z,64.3
2017-08-18T13:30:22.185Z,64.3
2017-08-18T13:31:23.834Z,64.5
2017-08-18T13:32:25.475Z,64.4
2017-08-18T13:33:27.115Z,64.6
2017-08-18T13:34:28.754Z,64.6
2017-08-18T13:35:30.399Z,64.4
2017-08-18T13:36:32.043Z,64.6
2017-08-18T13:37:33.680Z,64.6
2017-08-18T13:38:35.313Z,64.4
2017-08-18T13:39:36.955Z,64.5
2017-08-18T13:40:38.592Z,64.2